createdAt,value
2024-04-06T00:02:20.150Z,12.26
2024-04-06T00:04:47.636Z,12.24
2024-04-06T00:07:15.014Z,12.24
2024-04-06T00:09:42.465Z,12.22
2024-04-06T00:12:09.897Z,12.20
2024-04-06T00:14:37.352Z,12.20
2024-04-06T00:17:04.922Z,12.19
2024-04-06T00:19:34.064Z,12.17
2024-04-06T00:22:01.486Z,12.14
2024-04-06T00:24:29.294Z,12.11
2024-04-06T00:26:56.650Z,12.07
2024-04-06T00:29:24.270Z,12.05
2024-04-06T00:31:51.900Z,12.02
2024-04-06T00:34:19.862Z,12.01
2024-04-06T00:36:47.489Z,11.98
2024-04-06T00:39:14.981Z,11.96
2024-04-06T00:41:42.451Z,11.89
2024-04-06T00:44:10.025Z,11.84
2024-04-06T00:46:37.468Z,11.81
2024-04-06T00:49:05.219Z,11.78
2024-04-06T00:51:35.450Z,11.75
2024-04-06T00:54:03.334Z,11.69
2024-04-06T00:56:30.805Z,11.63
2024-04-06T00:58:58.319Z,11.57
2024-04-06T01:01:25.886Z,11.53
2024-04-06T01:03:53.413Z,11.49
2024-04-06T01:06:20.929Z,11.48
2024-04-06T01:08:48.468Z,11.47
2024-04-06T01:11:16.176Z,11.48
2024-04-06T01:13:43.632Z,11.50
2024-04-06T01:16:11.210Z,11.52
2024-04-06T01:18:38.630Z,11.54
2024-04-06T01:21:06.754Z,11.55
2024-04-06T01:23:36.927Z,11.56
2024-04-06T01:26:04.576Z,11.56
2024-04-06T01:28:32.040Z,11.57
2024-04-06T01:30:59.631Z,11.58
2024-04-06T01:33:27.131Z,11.58
2024-04-06T01:35:54.578Z,11.57
2024-04-06T01:38:22.198Z,11.60
2024-04-06T01:40:49.663Z,11.62
2024-04-06T01:43:17.106Z,11.62
2024-04-06T01:45:46.224Z,11.63
2024-04-06T01:48:13.668Z,11.63
2024-04-06T01:50:41.076Z,11.63
2024-04-06T01:53:08.757Z,11.60
2024-04-06T01:55:36.204Z,11.58
2024-04-06T01:58:03.822Z,11.56
2024-04-06T02:00:31.321Z,11.55
2024-04-06T02:02:58.832Z,11.53
2024-04-06T02:05:26.713Z,11.53
2024-04-06T02:07:54.384Z,11.53
2024-04-06T02:10:22.032Z,11.54
2024-04-06T02:12:51.376Z,11.56
2024-04-06T02:15:18.940Z,11.56
2024-04-06T02:17:46.435Z,11.58
2024-04-06T02:20:13.902Z,11.60
2024-04-06T02:22:41.564Z,11.61
2024-04-06T02:25:08.993Z,11.64
2024-04-06T02:27:36.449Z,11.64
2024-04-06T02:30:05.579Z,11.62
2024-04-06T02:32:33.207Z,11.58
2024-04-06T02:35:00.689Z,11.57
2024-04-06T02:37:28.477Z,11.56
2024-04-06T02:39:55.978Z,11.56
2024-04-06T02:42:23.764Z,11.56
2024-04-06T02:44:51.286Z,11.54
2024-04-06T02:47:18.825Z,11.52
2024-04-06T02:49:46.290Z,11.54
2024-04-06T02:52:14.743Z,11.53
2024-04-06T02:54:42.142Z,11.55
2024-04-06T02:57:09.668Z,11.55
2024-04-06T02:59:37.070Z,11.56
2024-04-06T03:02:05.589Z,11.56
2024-04-06T03:04:33.037Z,11.55
2024-04-06T03:07:00.620Z,11.55
2024-04-06T03:09:28.224Z,11.55
2024-04-06T03:11:55.723Z,11.52
2024-04-06T03:14:23.210Z,11.49
2024-04-06T03:16:50.616Z,11.47
2024-04-06T03:19:18.009Z,11.46
2024-04-06T03:21:45.392Z,11.45
2024-04-06T03:24:12.975Z,11.42
2024-04-06T03:26:43.701Z,11.42
2024-04-06T03:29:14.966Z,11.40
2024-04-06T03:31:42.421Z,11.39
2024-04-06T03:34:09.890Z,11.37
2024-04-06T03:36:38.168Z,11.34
2024-04-06T03:39:05.721Z,11.33
2024-04-06T03:41:33.159Z,11.32
2024-04-06T03:44:00.809Z,11.31
2024-04-06T03:46:30.228Z,11.31
2024-04-06T03:48:57.676Z,11.30
2024-04-06T03:51:25.178Z,11.28
2024-04-06T03:53:52.585Z,11.26
2024-04-06T03:56:20.103Z,11.28
2024-04-06T03:58:47.544Z,11.30
2024-04-06T04:01:15.146Z,11.31
2024-04-06T04:03:42.626Z,11.33
2024-04-06T04:06:10.137Z,11.36
2024-04-06T04:08:37.607Z,11.38
2024-04-06T04:11:05.184Z,11.39
2024-04-06T04:13:32.768Z,11.41
2024-04-06T04:16:00.194Z,11.43
2024-04-06T04:18:28.025Z,11.44
2024-04-06T04:20:55.482Z,11.50
2024-04-06T04:23:22.969Z,11.58
2024-04-06T04:25:50.532Z,11.65
2024-04-06T04:28:17.923Z,11.72
2024-04-06T04:30:45.693Z,11.75
2024-04-06T04:33:13.187Z,11.80
2024-04-06T04:35:40.655Z,11.84
2024-04-06T04:38:08.127Z,11.88
2024-04-06T04:40:35.616Z,11.92
2024-04-06T04:43:03.192Z,11.95
2024-04-06T04:45:30.606Z,11.98
2024-04-06T04:47:58.239Z,12.01
2024-04-06T04:50:25.835Z,12.04
2024-04-06T04:52:53.747Z,12.05
2024-04-06T04:55:22.920Z,12.05
2024-04-06T04:57:51.749Z,12.05
2024-04-06T05:00:19.367Z,12.04
2024-04-06T05:02:46.853Z,12.05
2024-04-06T05:05:14.272Z,12.07
2024-04-06T05:07:42.168Z,12.09
2024-04-06T05:10:12.500Z,12.11
2024-04-06T05:12:39.964Z,12.13
2024-04-06T05:15:07.945Z,12.16
2024-04-06T05:17:38.642Z,12.18
2024-04-06T05:20:06.646Z,12.21
2024-04-06T05:22:35.841Z,12.23
2024-04-06T05:25:04.697Z,12.24
2024-04-06T05:27:32.446Z,12.28
2024-04-06T05:29:59.888Z,12.33
2024-04-06T05:32:27.710Z,12.39
2024-04-06T05:34:55.173Z,12.44
2024-04-06T05:37:22.756Z,12.47
2024-04-06T05:39:50.266Z,12.53
2024-04-06T05:42:17.801Z,12.61
2024-04-06T05:44:45.282Z,12.72
2024-04-06T05:47:12.699Z,12.85
2024-04-06T05:49:40.289Z,12.98
2024-04-06T05:52:07.734Z,13.12
2024-04-06T05:54:35.401Z,13.29
2024-04-06T05:57:04.737Z,13.45
2024-04-06T05:59:32.347Z,13.61
2024-04-06T06:01:59.830Z,13.76
2024-04-06T06:04:27.318Z,13.88
2024-04-06T06:06:54.719Z,13.93
2024-04-06T06:09:22.094Z,13.94
2024-04-06T06:11:50.701Z,13.95
2024-04-06T06:14:21.033Z,13.98
2024-04-06T06:16:50.047Z,14.02
2024-04-06T06:19:17.469Z,14.06
2024-04-06T06:21:45.961Z,14.13
2024-04-06T06:24:13.979Z,14.23
2024-04-06T06:26:43.751Z,14.34
2024-04-06T06:29:11.147Z,14.49
2024-04-06T06:31:38.549Z,14.68
2024-04-06T06:34:06.271Z,14.92
2024-04-06T06:41:35.046Z,15.84
2024-04-06T06:44:02.509Z,16.08
2024-04-06T06:46:29.972Z,16.30
2024-04-06T06:48:57.403Z,16.57
2024-04-06T06:51:25.976Z,16.97
2024-04-06T06:53:54.204Z,17.37
2024-04-06T06:56:23.616Z,17.57
2024-04-06T06:58:51.831Z,17.68
2024-04-06T07:01:19.668Z,17.73
2024-04-06T07:03:47.200Z,17.78
2024-04-06T07:07:06.531Z,17.81
2024-04-06T07:09:04.364Z,17.80
2024-04-06T07:11:31.979Z,17.78
2024-04-06T07:13:59.478Z,17.78
2024-04-06T07:16:28.164Z,17.78
2024-04-06T07:18:55.858Z,17.82
2024-04-06T07:21:23.421Z,17.89
2024-04-06T07:23:51.024Z,17.96
2024-04-06T07:26:18.475Z,18.07
2024-04-06T07:28:46.070Z,18.19
2024-04-06T07:31:13.840Z,18.25
2024-04-06T07:33:41.263Z,18.23
2024-04-06T07:36:09.015Z,18.18
2024-04-06T07:39:19.757Z,18.13
2024-04-06T07:41:24.253Z,18.12
2024-04-06T07:43:51.787Z,18.17
2024-04-06T07:46:19.215Z,18.25
2024-04-06T07:48:47.032Z,18.32
2024-04-06T07:51:15.251Z,18.38
2024-04-06T07:53:42.686Z,18.44
2024-04-06T07:56:10.247Z,18.46
2024-04-06T07:58:37.737Z,18.47
2024-04-06T08:01:05.414Z,18.46
2024-04-06T08:03:33.074Z,18.47
2024-04-06T08:06:02.280Z,18.57
2024-04-06T08:08:31.240Z,18.93
2024-04-06T08:10:58.693Z,19.42
2024-04-06T08:13:26.158Z,20.01
2024-04-06T08:15:53.540Z,20.46
2024-04-06T08:18:21.079Z,20.70
2024-04-06T08:20:48.618Z,20.80
2024-04-06T08:23:18.656Z,20.89
2024-04-06T08:25:46.705Z,21.07
2024-04-06T08:28:14.208Z,21.28
2024-04-06T08:30:41.772Z,21.35
2024-04-06T08:33:09.405Z,21.46
2024-04-06T08:35:38.859Z,21.67
2024-04-06T08:38:08.080Z,21.99
2024-04-06T08:40:42.879Z,22.28
2024-04-06T08:43:13.510Z,22.62
2024-04-06T08:45:43.169Z,22.85
2024-04-06T08:48:11.218Z,23.05
2024-04-06T08:50:39.315Z,23.10
2024-04-06T08:53:06.892Z,23.09
2024-04-06T08:55:34.916Z,23.08
2024-04-06T08:58:02.364Z,23.10
2024-04-06T09:00:30.688Z,23.11
2024-04-06T09:02:58.117Z,23.15
2024-04-06T09:05:25.594Z,23.30
2024-04-06T09:07:53.208Z,23.60
2024-04-06T09:10:25.748Z,24.06
2024-04-06T09:12:53.082Z,24.59
2024-04-06T09:15:20.495Z,25.06
2024-04-06T09:17:48.065Z,25.45
2024-04-06T09:20:15.572Z,25.77
2024-04-06T09:22:44.029Z,25.93
2024-04-06T09:25:12.733Z,26.16
2024-04-06T09:27:46.294Z,26.35
2024-04-06T09:30:14.097Z,26.57
2024-04-06T09:32:41.814Z,26.73
2024-04-06T09:35:11.725Z,26.77
2024-04-06T09:37:41.812Z,26.82
2024-04-06T09:40:09.831Z,26.89
2024-04-06T09:42:38.207Z,26.93
2024-04-06T09:45:07.535Z,26.92
2024-04-06T09:47:36.211Z,26.90
2024-04-06T09:50:05.380Z,26.85
2024-04-06T09:52:32.926Z,26.76
2024-04-06T09:55:00.416Z,26.77
2024-04-06T09:57:27.969Z,26.76
2024-04-06T10:00:03.810Z,26.70
2024-04-06T10:02:35.576Z,26.63
2024-04-06T10:05:07.167Z,26.56
2024-04-06T10:07:35.512Z,26.44
2024-04-06T10:10:07.775Z,26.35
2024-04-06T10:12:46.918Z,26.17
2024-04-06T10:15:16.568Z,25.90
2024-04-06T10:17:46.942Z,25.59
2024-04-06T10:20:18.214Z,25.38
2024-04-06T10:22:49.922Z,25.18
2024-04-06T10:25:19.663Z,24.84
2024-04-06T10:27:47.744Z,24.58
2024-04-06T10:30:15.234Z,24.40
2024-04-06T10:32:44.366Z,24.23
2024-04-06T10:35:11.820Z,24.09
2024-04-06T10:37:39.373Z,23.94
2024-04-06T10:40:08.798Z,23.81
2024-04-06T10:42:40.028Z,23.65
2024-04-06T10:45:09.603Z,23.49
2024-04-06T10:47:37.020Z,23.36
2024-04-06T10:50:08.238Z,23.28
2024-04-06T10:52:37.617Z,23.19
2024-04-06T10:55:11.034Z,23.06
2024-04-06T10:57:39.217Z,22.92
2024-04-06T11:00:10.046Z,22.83
2024-04-06T11:02:39.516Z,22.76
2024-04-06T11:05:11.212Z,22.67
2024-04-06T11:07:40.093Z,22.57
2024-04-06T11:10:10.853Z,22.53
2024-04-06T11:12:41.583Z,22.51
2024-04-06T11:15:10.437Z,22.49
2024-04-06T11:17:38.307Z,22.46
2024-04-06T11:20:08.453Z,22.44
2024-04-06T11:22:40.092Z,22.40
2024-04-06T11:25:08.588Z,22.36
2024-04-06T11:27:36.318Z,22.32
2024-04-06T11:30:05.146Z,22.29
2024-04-06T11:32:32.692Z,22.24
2024-04-06T11:35:00.173Z,22.20
2024-04-06T11:37:28.196Z,22.12
2024-04-06T11:39:55.763Z,22.05
2024-04-06T11:42:23.170Z,22.01
2024-04-06T11:44:50.555Z,21.99
2024-04-06T11:47:18.628Z,21.98
2024-04-06T11:49:46.123Z,21.98
2024-04-06T11:52:13.570Z,21.98
2024-04-06T11:54:43.271Z,21.99
2024-04-06T11:57:11.323Z,22.01
2024-04-06T11:59:38.913Z,22.03
2024-04-06T12:02:06.841Z,22.05
2024-04-06T12:04:34.271Z,22.06
2024-04-06T12:07:01.846Z,22.10
2024-04-06T12:09:30.514Z,22.14
2024-04-06T12:11:59.252Z,22.16
2024-04-06T12:14:26.827Z,22.19
2024-04-06T12:16:55.661Z,22.20
2024-04-06T12:19:24.537Z,22.20
2024-04-06T12:21:52.031Z,22.23
2024-04-06T12:24:19.455Z,22.25
2024-04-06T12:26:47.063Z,22.27
2024-04-06T12:29:14.492Z,22.30
2024-04-06T12:31:42.111Z,22.30
2024-04-06T12:34:09.529Z,22.29
2024-04-06T12:36:36.990Z,22.29
2024-04-06T12:39:10.257Z,22.31
2024-04-06T12:41:37.959Z,22.33
2024-04-06T12:44:05.605Z,22.35
2024-04-06T12:46:33.156Z,22.38
2024-04-06T12:49:00.729Z,22.39
2024-04-06T12:51:28.296Z,22.39
2024-04-06T12:53:55.829Z,22.39
2024-04-06T12:56:23.309Z,22.39
2024-04-06T12:58:51.138Z,22.39
2024-04-06T13:01:19.034Z,22.41
2024-04-06T13:03:56.582Z,22.42
2024-04-06T13:06:32.104Z,22.47
2024-04-06T13:08:59.923Z,22.54
2024-04-06T13:11:27.460Z,22.61
2024-04-06T13:13:55.233Z,22.68
2024-04-06T13:16:22.955Z,22.75
2024-04-06T13:18:50.606Z,22.81
2024-04-06T13:21:18.211Z,22.84
2024-04-06T13:23:45.801Z,22.90
2024-04-06T13:26:13.455Z,22.95
2024-04-06T13:28:40.983Z,23.00
2024-04-06T13:31:08.999Z,23.04
2024-04-06T13:33:37.031Z,23.07
2024-04-06T13:36:05.104Z,23.10
2024-04-06T13:38:32.580Z,23.13
2024-04-06T13:41:00.013Z,23.18
2024-04-06T13:43:27.591Z,23.22
2024-04-06T13:45:56.584Z,23.24
2024-04-06T13:48:24.668Z,23.24
2024-04-06T13:50:55.622Z,23.23
2024-04-06T13:53:23.122Z,23.22
2024-04-06T13:55:51.522Z,23.21
2024-04-06T13:58:19.198Z,23.21
2024-04-06T14:00:46.787Z,23.22
2024-04-06T14:03:14.365Z,23.21
2024-04-06T14:05:41.980Z,23.22
2024-04-06T14:08:09.615Z,23.21
2024-04-06T14:10:39.251Z,23.22
2024-04-06T14:13:07.035Z,23.21
2024-04-06T14:15:34.739Z,23.21
2024-04-06T14:18:02.178Z,23.20
2024-04-06T14:20:29.724Z,23.17
2024-04-06T14:22:58.016Z,23.12
2024-04-06T14:25:25.548Z,23.10
2024-04-06T14:27:53.200Z,23.05
2024-04-06T14:30:26.443Z,23.02
2024-04-06T14:32:54.107Z,23.00
2024-04-06T14:35:21.687Z,22.95
2024-04-06T14:37:50.146Z,22.91
2024-04-06T14:40:17.693Z,22.89
2024-04-06T14:42:45.521Z,22.87
2024-04-06T14:45:13.040Z,22.86
2024-04-06T14:47:40.479Z,22.86
2024-04-06T14:50:08.099Z,22.83
2024-04-06T14:52:35.564Z,22.81
2024-04-06T14:55:03.559Z,22.80
2024-04-06T14:57:30.960Z,22.78
2024-04-06T14:59:58.462Z,22.75
2024-04-06T15:02:25.990Z,22.72
2024-04-06T15:04:53.680Z,22.70
2024-04-06T15:07:30.935Z,22.67
2024-04-06T15:10:05.884Z,22.62
2024-04-06T15:12:34.146Z,22.59
2024-04-06T15:15:03.593Z,22.55
2024-04-06T15:17:31.287Z,22.50
2024-04-06T15:19:58.934Z,22.45
2024-04-06T15:22:26.438Z,22.40
2024-04-06T15:24:53.919Z,22.36
2024-04-06T15:27:21.378Z,22.33
2024-04-06T15:29:48.790Z,22.29
2024-04-06T15:32:16.258Z,22.25
2024-04-06T15:34:43.977Z,22.21
2024-04-06T15:37:12.101Z,22.18
2024-04-06T15:39:39.570Z,22.15
2024-04-06T15:42:07.854Z,22.10
2024-04-06T15:44:35.348Z,22.07
2024-04-06T15:47:06.991Z,22.03
2024-04-06T15:49:34.945Z,21.97
2024-04-06T15:52:02.817Z,21.91
2024-04-06T15:54:30.405Z,21.86
2024-04-06T15:56:58.028Z,21.82
2024-04-06T15:59:25.493Z,21.79
2024-04-06T16:01:53.380Z,21.75
2024-04-06T16:04:20.892Z,21.69
2024-04-06T16:06:48.421Z,21.64
2024-04-06T16:09:15.950Z,21.60
2024-04-06T16:11:43.599Z,21.55
2024-04-06T16:14:11.662Z,21.49
2024-04-06T16:16:39.229Z,21.44
2024-04-06T16:19:06.815Z,21.38
2024-04-06T16:21:34.235Z,21.33
2024-04-06T16:24:02.131Z,21.26
2024-04-06T16:26:29.577Z,21.21
2024-04-06T16:28:57.042Z,21.15
2024-04-06T16:31:24.616Z,21.10
2024-04-06T16:33:53.100Z,21.05
2024-04-06T16:36:20.474Z,20.99
2024-04-06T16:38:47.880Z,20.92
2024-04-06T16:41:15.704Z,20.84
2024-04-06T16:43:43.182Z,20.76
2024-04-06T16:46:10.824Z,20.68
2024-04-06T16:48:38.353Z,20.58
2024-04-06T16:51:05.858Z,20.49
2024-04-06T16:53:33.825Z,20.39
2024-04-06T16:56:01.312Z,20.28
2024-04-06T16:58:28.993Z,20.18
2024-04-06T17:00:56.561Z,20.08
2024-04-06T17:03:24.035Z,19.97
2024-04-06T17:05:51.637Z,19.85
2024-04-06T17:08:19.213Z,19.73
2024-04-06T17:10:46.898Z,19.59
2024-04-06T17:13:15.316Z,19.44
2024-04-06T17:15:43.605Z,19.31
2024-04-06T17:18:11.446Z,19.17
2024-04-06T17:20:39.055Z,19.02
2024-04-06T17:23:12.007Z,18.88
2024-04-06T17:25:39.846Z,18.75
2024-04-06T17:28:07.260Z,18.63
2024-04-06T17:30:35.092Z,18.51
2024-04-06T17:33:03.806Z,18.38
2024-04-06T17:35:31.227Z,18.24
2024-04-06T17:38:01.715Z,18.08
2024-04-06T17:40:29.262Z,17.91
2024-04-06T17:42:57.001Z,17.75
2024-04-06T17:45:24.708Z,17.59
2024-04-06T17:47:52.117Z,17.46
2024-04-06T17:50:21.226Z,17.33
2024-04-06T17:52:48.760Z,17.21
2024-04-06T17:55:17.161Z,17.11
2024-04-06T17:57:44.761Z,16.99
2024-04-06T18:00:13.158Z,16.89
2024-04-06T18:02:40.866Z,16.78
2024-04-06T18:05:08.855Z,16.64
2024-04-06T18:07:36.419Z,16.50
2024-04-06T18:10:04.138Z,16.38
2024-04-06T18:12:31.588Z,16.28
2024-04-06T18:14:59.362Z,16.18
2024-04-06T18:17:27.105Z,16.09
2024-04-06T18:19:54.533Z,15.99
2024-04-06T18:22:22.014Z,15.88
2024-04-06T18:24:49.447Z,15.80
2024-04-06T18:27:17.543Z,15.71
2024-04-06T18:29:45.105Z,15.59
2024-04-06T18:32:13.364Z,15.48
2024-04-06T18:34:43.297Z,15.40
2024-04-06T18:37:13.240Z,15.31
2024-04-06T18:39:40.823Z,15.21
2024-04-06T18:42:08.299Z,15.10
2024-04-06T18:44:35.834Z,15.00
2024-04-06T18:47:03.413Z,14.88
2024-04-06T18:49:30.880Z,14.77
2024-04-06T18:51:58.501Z,14.68
2024-04-06T18:54:28.244Z,14.60
2024-04-06T18:56:56.139Z,14.52
2024-04-06T18:59:23.607Z,14.41
2024-04-06T19:01:51.085Z,14.34
2024-04-06T19:04:18.937Z,14.26
2024-04-06T19:06:47.520Z,14.18
2024-04-06T19:09:14.988Z,14.11
2024-04-06T19:11:42.585Z,14.04
2024-04-06T19:14:10.097Z,13.95
2024-04-06T19:16:37.717Z,13.87
2024-04-06T19:19:05.142Z,13.76
2024-04-06T19:21:33.477Z,13.66
2024-04-06T19:24:00.953Z,13.57
2024-04-06T19:26:31.586Z,13.50
2024-04-06T19:29:03.775Z,13.43
2024-04-06T19:31:32.793Z,13.37
2024-04-06T19:34:00.422Z,13.32
2024-04-06T19:36:30.511Z,13.26
2024-04-06T19:38:58.726Z,13.18
2024-04-06T19:41:26.320Z,13.11
2024-04-06T19:43:53.936Z,13.03
2024-04-06T19:46:21.436Z,12.97
2024-04-06T19:48:49.174Z,12.92
2024-04-06T19:51:16.651Z,12.87
2024-04-06T19:53:44.099Z,12.80
2024-04-06T19:56:11.667Z,12.74
2024-04-06T19:58:39.445Z,12.67
2024-04-06T20:01:07.318Z,12.59
2024-04-06T20:03:34.777Z,12.52
2024-04-06T20:06:09.129Z,12.42
2024-04-06T20:08:37.330Z,12.34
2024-04-06T20:11:05.591Z,12.28
2024-04-06T20:13:33.040Z,12.23
2024-04-06T20:16:00.566Z,12.18
2024-04-06T20:18:30.066Z,12.13
2024-04-06T20:20:57.827Z,12.09
2024-04-06T20:23:44.193Z,12.05
2024-04-06T20:26:14.961Z,12.00
2024-04-06T20:28:43.587Z,11.94
2024-04-06T20:31:12.372Z,11.87
2024-04-06T20:33:41.299Z,11.79
2024-04-06T20:36:09.107Z,11.72
2024-04-06T20:38:36.833Z,11.66
2024-04-06T20:41:04.903Z,11.59
2024-04-06T20:43:33.118Z,11.54
2024-04-06T20:46:00.633Z,11.48
2024-04-06T20:48:28.164Z,11.41
2024-04-06T20:50:55.654Z,11.35
2024-04-06T20:53:23.271Z,11.28
2024-04-06T20:55:50.747Z,11.20
2024-04-06T20:58:18.300Z,11.19
2024-04-06T21:00:47.481Z,11.17
2024-04-06T21:03:14.975Z,11.15
2024-04-06T21:05:43.636Z,11.15
2024-04-06T21:08:11.277Z,11.16
2024-04-06T21:10:38.891Z,11.14
2024-04-06T21:13:06.346Z,11.06
2024-04-06T21:15:33.841Z,11.00
2024-04-06T21:18:01.295Z,10.95
2024-04-06T21:20:28.747Z,10.89
2024-04-06T21:22:57.836Z,10.83
2024-04-06T21:25:25.254Z,10.77
2024-04-06T21:27:52.831Z,10.71
2024-04-06T21:30:20.278Z,10.64
2024-04-06T21:32:47.995Z,10.57
2024-04-06T21:35:16.214Z,10.50
2024-04-06T21:37:45.640Z,10.44
2024-04-06T21:40:14.110Z,10.38
2024-04-06T21:42:41.879Z,10.32
2024-04-06T21:45:09.319Z,10.27
2024-04-06T21:47:37.382Z,10.23
2024-04-06T21:50:05.874Z,10.19
2024-04-06T21:52:33.473Z,10.16
2024-04-06T21:55:00.947Z,10.13
2024-04-06T21:57:28.398Z,10.11
2024-04-06T21:59:56.014Z,10.07
2024-04-06T22:02:23.391Z,10.03
2024-04-06T22:04:50.900Z,9.96
2024-04-06T22:07:18.464Z,9.89
2024-04-06T22:09:45.896Z,9.83
2024-04-06T22:12:13.292Z,9.77
2024-04-06T22:14:41.917Z,9.72
2024-04-06T22:17:09.283Z,9.70
2024-04-06T22:19:36.813Z,9.68
2024-04-06T22:22:04.405Z,9.67
2024-04-06T22:24:32.054Z,9.66
2024-04-06T22:26:59.616Z,9.63
2024-04-06T22:29:27.044Z,9.61
2024-04-06T22:31:54.711Z,9.60
2024-04-06T22:34:22.373Z,9.60
2024-04-06T22:36:49.797Z,9.60
2024-04-06T22:39:17.337Z,9.57
2024-04-06T22:41:44.745Z,9.51
2024-04-06T22:44:13.240Z,9.44
2024-04-06T22:46:40.774Z,9.39
2024-04-06T22:49:08.302Z,9.32
2024-04-06T22:51:35.812Z,9.29
2024-04-06T22:54:03.726Z,9.26
2024-04-06T22:56:31.178Z,9.23
2024-04-06T22:58:59.350Z,9.22
2024-04-06T23:01:27.186Z,9.19
2024-04-06T23:03:55.289Z,9.19
2024-04-06T23:06:23.034Z,9.17
2024-04-06T23:08:50.418Z,9.16
2024-04-06T23:11:17.923Z,9.16
2024-04-06T23:13:45.349Z,9.14
2024-04-06T23:16:12.905Z,9.10
2024-04-06T23:18:40.333Z,9.06
2024-04-06T23:21:07.664Z,9.00
2024-04-06T23:23:35.122Z,8.93
2024-04-06T23:26:02.611Z,8.88
2024-04-06T23:28:30.042Z,8.83
2024-04-06T23:30:57.462Z,8.80
2024-04-06T23:33:24.766Z,8.76
2024-04-06T23:35:52.703Z,8.71
2024-04-06T23:38:20.238Z,8.65
2024-04-06T23:40:47.725Z,8.59
2024-04-06T23:43:15.336Z,8.54
2024-04-06T23:45:42.794Z,8.53
2024-04-06T23:48:10.229Z,8.52
2024-04-06T23:50:38.046Z,8.54
2024-04-06T23:53:05.669Z,8.54
2024-04-06T23:55:32.956Z,8.56
2024-04-06T23:58:00.407Z,8.57
